Time;durP1;ratioP1;P1;durP2;ratioP2;P2;SDS_P1;SDS_P2;PMS_P1;PMS_P2;Temp;Humidity;BMP_temperature;BMP_pressure;BME280_temperature;BME280_humidity;BME280_pressure;Samples;Min_cycle;Max_cycle;Signal;HPM_P1;HPM_P2
2022/09/07 00:02:10;;;;;;;;;;;;;;;19.36;60.23;99874.16;4409442;32;19986;-94
2022/09/07 00:04:35;;;;;;;;;;;;;;;19.41;60.24;99866.81;4409685;32;20001;-94
2022/09/07 00:07:00;;;;;;;;;;;;;;;19.49;60.24;99872.41;4409438;32;19996;-92
2022/09/07 00:09:26;;;;;;;;;;;;;;;19.28;60.23;99868.53;4408587;32;20378;-92
2022/09/07 00:11:51;;;;;;;;;;;;;;;19.43;60.23;99869.34;4408527;32;19974;-94
2022/09/07 00:14:16;;;;;;;;;;;;;;;19.41;60.24;99873.88;4408520;32;19985;-92
2022/09/07 00:16:41;;;;;;;;;;;;;;;19.36;60.23;99868.88;4408443;32;19998;-93
2022/09/07 00:19:07;;;;;;;;;;;;;;;19.25;60.23;99864.31;4408829;32;20324;-92
2022/09/07 00:21:32;;;;;;;;;;;;;;;19.28;60.23;99858.00;4407820;32;19978;-91
2022/09/07 00:23:57;;;;;;;;;;;;;;;19.26;60.23;99858.09;4395269;32;19990;-92
2022/09/07 00:26:26;;;;;;;;;;;;;;;19.15;60.22;99851.81;4408198;32;20267;-91
2022/09/07 00:28:51;;;;;;;;;;;;;;;19.08;60.23;99853.16;4408132;32;20051;-91
2022/09/07 00:31:17;;;;;;;;;;;;;;;19.19;60.22;99848.91;4407545;32;19990;-92
2022/09/07 00:33:43;;;;;;;;;;;;;;;19.08;60.21;99851.38;4409317;32;19977;-93
2022/09/07 00:36:08;;;;;;;;;;;;;;;18.95;60.21;99848.72;4409241;32;20080;-93
2022/09/07 00:38:33;;;;;;;;;;;;;;;18.97;60.21;99844.19;4409142;32;19987;-92
2022/09/07 00:40:59;;;;;;;;;;;;;;;18.98;60.21;99842.38;4408098;32;19984;-93
2022/09/07 00:43:43;;;;;;;;;;;;;;;19.06;60.21;99841.87;4409833;32;20014;-93
2022/09/07 00:46:13;;;;;;;;;;;;;;;19.12;60.22;99847.59;4409697;32;19989;-92
2022/09/07 00:48:48;;;;;;;;;;;;;;;19.10;60.22;99846.00;4410180;32;20006;-92
2022/09/07 00:51:15;;;;;;;;;;;;;;;18.99;60.21;99852.00;4410956;32;20339;-93
2022/09/07 00:53:53;;;;;;;;;;;;;;;18.96;60.22;99849.56;4413564;32;20331;-91
2022/09/07 00:56:19;;;;;;;;;;;;;;;18.97;60.21;99854.72;4411382;32;20010;-91
2022/09/07 00:58:47;;;;;;;;;;;;;;;19.05;60.21;99840.19;4408773;32;19997;-91
2022/09/07 01:01:12;;;;;;;;;;;;;;;18.69;60.20;99847.75;4381411;32;897208;-91
2022/09/07 01:03:39;;;;;;;;;;;;;;;18.61;60.19;99847.34;4408010;32;19974;-90
2022/09/07 01:06:06;;;;;;;;;;;;;;;18.79;60.20;99841.87;4407953;32;20025;-91
2022/09/07 01:08:31;;;;;;;;;;;;;;;18.73;60.20;99845.75;4407748;32;19986;-91
2022/09/07 01:10:57;;;;;;;;;;;;;;;18.61;60.19;99847.34;4407940;32;20000;-90
2022/09/07 01:13:22;;;;;;;;;;;;;;;18.67;60.19;99844.34;4407715;32;20262;-88
2022/09/07 01:15:53;;;;;;;;;;;;;;;18.73;60.20;99851.03;4407912;32;19986;-92
2022/09/07 01:18:27;;;;;;;;;;;;;;;18.71;60.21;99847.66;4395415;32;20370;-91
2022/09/07 01:21:01;;;;;;;;;;;;;;;18.68;60.19;99847.81;4395059;32;20006;-91
2022/09/07 01:23:42;;;;;;;;;;;;;;;18.62;60.20;99851.69;4407835;32;19986;-91
2022/09/07 01:26:19;;;;;;;;;;;;;;;18.81;60.20;99840.81;4407755;32;20005;-91
2022/09/07 01:28:46;;;;;;;;;;;;;;;18.71;60.20;99839.75;4407939;32;20048;-91
2022/09/07 01:31:18;;;;;;;;;;;;;;;18.68;60.19;99839.91;4407354;32;19985;-91
2022/09/07 01:33:51;;;;;;;;;;;;;;;18.90;60.21;99831.47;4407842;32;20323;-91
2022/09/07 01:36:17;;;;;;;;;;;;;;;18.62;60.20;99829.72;4407300;32;20034;-90
2022/09/07 01:38:46;;;;;;;;;;;;;;;18.58;60.19;99839.63;4407231;32;20036;-89
2022/09/07 01:41:26;;;;;;;;;;;;;;;18.49;60.19;99831.47;4407311;32;20010;-91
2022/09/07 01:43:53;;;;;;;;;;;;;;;18.55;60.19;99837.19;4407577;32;20634;-92
2022/09/07 01:46:42;;;;;;;;;;;;;;;18.42;60.18;99831.00;4407685;32;20010;-91
2022/09/07 01:49:09;;;;;;;;;;;;;;;18.44;60.19;99836.16;4398029;32;20016;-92
2022/09/07 01:51:34;;;;;;;;;;;;;;;18.40;60.18;99817.91;4408423;32;20058;-92
2022/09/07 01:54:03;;;;;;;;;;;;;;;18.39;60.18;99818.84;4409739;32;19982;-90
2022/09/07 01:56:47;;;;;;;;;;;;;;;18.48;60.19;99820.09;4409593;32;20005;-92
2022/09/07 01:59:50;;;;;;;;;;;;;;;18.44;60.19;99815.06;4409500;32;19998;-92
2022/09/07 02:02:17;;;;;;;;;;;;;;;18.37;60.18;99822.53;4338295;32;20492;-92
2022/09/07 02:04:49;;;;;;;;;;;;;;;18.29;60.17;99824.81;4351350;32;19996;-93
2022/09/07 02:07:23;;;;;;;;;;;;;;;18.36;60.18;99818.19;4379871;32;20000;-93
2022/09/07 02:09:50;;;;;;;;;;;;;;;18.26;60.18;99811.84;4409537;32;19998;-92
2022/09/07 02:12:26;;;;;;;;;;;;;;;18.28;60.17;99821.34;4409576;32;20655;-93
2022/09/07 02:14:54;;;;;;;;;;;;;;;18.30;60.17;99815.97;4409988;32;19978;-91
2022/09/07 02:17:27;;;;;;;;;;;;;;;18.27;60.17;99824.06;4410455;32;20001;-94
2022/09/07 02:19:53;;;;;;;;;;;;;;;18.21;60.17;99822.62;4411322;32;19994;-93
2022/09/07 02:22:23;;;;;;;;;;;;;;;18.23;60.18;99820.78;4411792;32;19974;-94
2022/09/07 02:24:49;;;;;;;;;;;;;;;18.33;60.18;99813.97;4413510;32;19999;-93
2022/09/07 02:27:18;;;;;;;;;;;;;;;18.30;60.18;99808.06;4416695;32;19990;-93
2022/09/07 02:29:43;;;;;;;;;;;;;;;18.20;60.17;99806.94;4412013;32;20058;-92
2022/09/07 02:32:08;;;;;;;;;;;;;;;18.07;60.17;99805.06;4409146;32;19982;-93
2022/09/07 02:34:34;;;;;;;;;;;;;;;18.25;60.18;99810.13;4409926;32;20006;-93
2022/09/07 02:37:00;;;;;;;;;;;;;;;18.10;60.17;99802.25;4410228;32;19990;-95
2022/09/07 02:39:25;;;;;;;;;;;;;;;18.05;60.16;99801.69;4410651;32;20268;-93
2022/09/07 02:41:50;;;;;;;;;;;;;;;18.05;60.16;99798.22;4409125;32;19982;-92
2022/09/07 02:44:19;;;;;;;;;;;;;;;18.02;60.16;99796.63;4409161;32;20469;-92
2022/09/07 02:46:47;;;;;;;;;;;;;;;18.00;60.17;99790.59;4409203;32;20580;-91
2022/09/07 02:49:31;;;;;;;;;;;;;;;18.16;60.17;99792.25;4409088;32;20016;-92
2022/09/07 02:52:06;;;;;;;;;;;;;;;18.12;60.17;99807.41;4409163;32;20100;-93
2022/09/07 02:54:36;;;;;;;;;;;;;;;18.17;60.17;99788.69;4408963;32;20616;-92
2022/09/07 02:57:01;;;;;;;;;;;;;;;18.14;60.17;99786.25;4408671;32;19986;-91
2022/09/07 02:59:29;;;;;;;;;;;;;;;18.11;60.17;99792.53;4409362;32;19994;-92
2022/09/07 03:01:56;;;;;;;;;;;;;;;17.95;60.16;99794.44;4408889;32;19982;-92
2022/09/07 03:04:24;;;;;;;;;;;;;;;18.08;60.17;99793.59;4409009;32;19978;-93
2022/09/07 03:06:51;;;;;;;;;;;;;;;18.19;60.17;99797.31;4409201;32;20328;-93
2022/09/07 03:09:20;;;;;;;;;;;;;;;17.97;60.16;99793.38;4409515;32;20343;-92
2022/09/07 03:11:45;;;;;;;;;;;;;;;17.96;60.16;99789.06;4408669;32;20047;-91
2022/09/07 03:14:13;;;;;;;;;;;;;;;18.02;60.16;99786.06;4408283;32;20575;-90
2022/09/07 03:16:38;;;;;;;;;;;;;;;18.27;60.17;99792.44;4408769;32;20351;-92
2022/09/07 03:19:04;;;;;;;;;;;;;;;18.12;60.17;99790.75;4408873;32;19986;-92
2022/09/07 03:21:30;;;;;;;;;;;;;;;18.16;60.17;99792.25;4408605;32;19982;-92
2022/09/07 03:23:55;;;;;;;;;;;;;;;18.27;60.17;99792.44;4409004;32;19982;-92
2022/09/07 03:26:22;;;;;;;;;;;;;;;18.26;60.18;99793.38;4408698;32;20020;-93
2022/09/07 03:28:50;;;;;;;;;;;;;;;18.20;60.17;99791.97;4409277;32;19998;-92
2022/09/07 03:31:15;;;;;;;;;;;;;;;17.98;60.15;99786.34;4409459;32;19993;-92
2022/09/07 03:33:40;;;;;;;;;;;;;;;17.96;60.16;99778.53;4409253;32;19982;-93
2022/09/07 03:36:06;;;;;;;;;;;;;;;18.03;60.16;99787.75;4409952;32;20038;-93
2022/09/07 03:38:31;;;;;;;;;;;;;;;18.01;60.16;99786.16;4409623;32;20319;-93
2022/09/07 03:41:00;;;;;;;;;;;;;;;17.95;60.16;99783.91;4409606;32;20005;-92
2022/09/07 03:43:25;;;;;;;;;;;;;;;17.92;60.15;99784.09;4409157;32;19977;-93
2022/09/07 03:45:55;;;;;;;;;;;;;;;17.99;60.16;99791.53;4409319;32;20044;-92
2022/09/07 03:48:20;;;;;;;;;;;;;;;18.01;60.16;99792.28;4408915;32;20386;-92
2022/09/07 03:50:53;;;;;;;;;;;;;;;17.79;60.15;99805.91;4409515;32;19994;-92
2022/09/07 03:53:18;;;;;;;;;;;;;;;17.87;60.16;99799.31;4410244;32;19990;-92
2022/09/07 03:55:53;;;;;;;;;;;;;;;18.08;60.17;99800.66;4412018;32;20327;-92
2022/09/07 03:58:19;;;;;;;;;;;;;;;18.05;60.16;99804.31;4413826;32;19962;-91
2022/09/07 04:00:44;;;;;;;;;;;;;;;17.99;60.16;99802.06;4397398;32;20032;-90
2022/09/07 04:03:09;;;;;;;;;;;;;;;17.95;60.16;99799.69;4408140;32;20350;-91
2022/09/07 04:05:34;;;;;;;;;;;;;;;17.84;60.14;99804.78;4407881;32;21993;-92
2022/09/07 04:08:00;;;;;;;;;;;;;;;17.87;60.16;99799.31;4408615;32;20005;-92
2022/09/07 04:10:25;;;;;;;;;;;;;;;17.72;60.15;99811.63;4408693;32;19986;-90
2022/09/07 04:12:50;;;;;;;;;;;;;;;17.79;60.15;99807.72;4408200;32;19974;-90
2022/09/07 04:15:15;;;;;;;;;;;;;;;17.80;60.15;99809.41;4406957;32;19994;-91
2022/09/07 04:17:41;;;;;;;;;;;;;;;17.83;60.15;99809.22;4408830;32;19978;-92
2022/09/07 04:20:06;;;;;;;;;;;;;;;17.95;60.16;99807.59;4408193;32;20029;-90
2022/09/07 04:22:42;;;;;;;;;;;;;;;17.97;60.16;99810.97;4409612;32;19978;-94
2022/09/07 04:25:08;;;;;;;;;;;;;;;17.84;60.15;99816.16;4409474;32;20013;-94
2022/09/07 04:27:33;;;;;;;;;;;;;;;17.72;60.14;99811.63;4409295;32;20006;-91
2022/09/07 04:29:58;;;;;;;;;;;;;;;17.83;60.14;99819.75;4407318;32;20021;-89
2022/09/07 04:32:23;;;;;;;;;;;;;;;17.68;60.14;99813.59;4408414;32;20009;-92
2022/09/07 04:34:50;;;;;;;;;;;;;;;17.77;60.14;99826.22;4408315;32;19986;-92
2022/09/07 04:37:15;;;;;;;;;;;;;;;17.69;60.14;99823.19;4406367;32;20006;-90
2022/09/07 04:39:41;;;;;;;;;;;;;;;17.91;60.15;99829.81;4407731;32;19994;-90
2022/09/07 04:42:06;;;;;;;;;;;;;;;17.94;60.16;99833.09;4406835;32;21250;-90
2022/09/07 04:44:31;;;;;;;;;;;;;;;17.91;60.15;99830.66;4407240;32;19994;-89
2022/09/07 04:46:56;;;;;;;;;;;;;;;17.96;60.16;99835.63;4407407;32;20022;-90
2022/09/07 04:49:22;;;;;;;;;;;;;;;18.05;60.16;99833.28;4407972;32;20291;-92
2022/09/07 04:51:47;;;;;;;;;;;;;;;18.03;60.16;99839.59;4409271;32;19997;-92
2022/09/07 04:54:12;;;;;;;;;;;;;;;18.06;60.16;99835.00;4406993;32;20028;-87
2022/09/07 04:56:37;;;;;;;;;;;;;;;18.04;60.16;99830.75;4407965;32;20018;-92
2022/09/07 04:59:03;;;;;;;;;;;;;;;18.13;60.16;99834.59;4407978;32;19982;-90
2022/09/07 05:01:28;;;;;;;;;;;;;;;18.24;60.18;99834.81;4395507;32;20248;-90
2022/09/07 05:03:53;;;;;;;;;;;;;;;18.45;60.18;99835.22;4408281;32;19999;-92
2022/09/07 05:06:19;;;;;;;;;;;;;;;18.42;60.18;99828.34;4407976;32;20033;-93
2022/09/07 05:08:45;;;;;;;;;;;;;;;18.49;60.19;99832.31;4408784;32;20348;-91
2022/09/07 05:11:10;;;;;;;;;;;;;;;18.58;60.19;99828.25;4408384;32;20001;-92
2022/09/07 05:13:35;;;;;;;;;;;;;;;18.72;60.19;99827.41;4395433;32;20002;-92
2022/09/07 05:16:06;;;;;;;;;;;;;;;19.01;60.22;99829.84;4407997;32;19986;-91
2022/09/07 05:18:31;;;;;;;;;;;;;;;18.89;60.20;99824.50;4408221;32;19992;-92
2022/09/07 05:21:05;;;;;;;;;;;;;;;18.71;60.20;99831.84;4408331;32;19994;-92
2022/09/07 05:23:30;;;;;;;;;;;;;;;19.00;60.20;99837.84;4407876;32;20331;-93
2022/09/07 05:25:56;;;;;;;;;;;;;;;18.97;60.21;99838.06;4407659;32;20008;-90
2022/09/07 05:28:21;;;;;;;;;;;;;;;19.06;60.21;99837.44;4398579;32;20415;-91
2022/09/07 05:30:46;;;;;;;;;;;;;;;19.14;60.22;99842.19;4418466;32;20047;-92
2022/09/07 05:33:11;;;;;;;;;;;;;;;19.28;60.23;99835.09;4410901;32;20005;-92
2022/09/07 05:35:37;;;;;;;;;;;;;;;19.35;60.23;99843.44;4409161;32;20347;-91
2022/09/07 05:38:02;;;;;;;;;;;;;;;19.47;60.24;99839.97;4407783;32;19974;-91
2022/09/07 05:40:30;;;;;;;;;;;;;;;19.61;60.25;99845.19;4407617;32;20352;-92
2022/09/07 05:42:55;;;;;;;;;;;;;;;19.70;60.25;99849.03;4407379;32;20012;-92
2022/09/07 05:45:20;;;;;;;;;;;;;;;19.78;60.26;99836.13;4407405;32;19990;-93
2022/09/07 05:47:47;;;;;;;;;;;;;;;19.84;60.25;99846.25;4407278;32;19990;-92
2022/09/07 05:50:12;;;;;;;;;;;;;;;20.10;60.27;99841.81;4407746;32;19986;-91
2022/09/07 05:52:38;;;;;;;;;;;;;;;20.34;60.28;99835.75;4407754;32;19998;-92
2022/09/07 05:55:03;;;;;;;;;;;;;;;20.38;60.28;99838.09;4407856;32;19994;-91
2022/09/07 05:57:28;;;;;;;;;;;;;;;20.47;60.29;99844.56;4407568;32;20269;-91
2022/09/07 05:59:53;;;;;;;;;;;;;;;20.65;60.30;99843.25;4407672;32;19993;-92
2022/09/07 06:02:19;;;;;;;;;;;;;;;20.76;60.30;99842.44;4407620;32;19990;-91
2022/09/07 06:04:46;;;;;;;;;;;;;;;20.89;60.31;99837.97;4407498;32;20012;-92
2022/09/07 06:07:12;;;;;;;;;;;;;;;20.99;60.31;99846.91;4407328;32;20033;-91
2022/09/07 06:09:37;;;;;;;;;;;;;;;21.17;60.32;99836.78;4406789;32;19997;-92
2022/09/07 06:12:04;;;;;;;;;;;;;;;21.14;60.32;99843.13;4407325;32;19978;-92
2022/09/07 06:14:38;;;;;;;;;;;;;;;21.31;60.33;99841.09;4407027;32;20006;-90
2022/09/07 06:17:04;;;;;;;;;;;;;;;21.43;60.34;99848.94;4407245;32;20001;-90
2022/09/07 06:19:29;;;;;;;;;;;;;;;21.59;60.35;99842.50;4408337;32;19986;-89
2022/09/07 06:21:54;;;;;;;;;;;;;;;21.56;60.34;99848.03;4406718;32;19978;-91
2022/09/07 06:24:19;;;;;;;;;;;;;;;21.57;60.35;99841.75;4406950;32;20034;-90
2022/09/07 06:26:45;;;;;;;;;;;;;;;21.63;60.34;99849.22;4406935;32;20268;-90
2022/09/07 06:29:10;;;;;;;;;;;;;;;21.65;60.35;99842.00;4407005;32;19971;-91
2022/09/07 06:31:35;;;;;;;;;;;;;;;21.70;60.35;99840.69;4406824;32;20357;-89
2022/09/07 06:34:01;;;;;;;;;;;;;;;21.71;60.36;99839.72;4407032;32;20320;-90
2022/09/07 06:36:26;;;;;;;;;;;;;;;21.77;60.35;99833.13;4406795;32;19974;-90
2022/09/07 06:38:51;;;;;;;;;;;;;;;21.90;60.37;99835.66;4408511;32;19990;-89
2022/09/07 06:41:18;;;;;;;;;;;;;;;22.00;60.36;99834.84;4409020;32;20020;-89
2022/09/07 06:43:43;;;;;;;;;;;;;;;22.09;60.37;99832.47;4410182;32;20001;-89
2022/09/07 06:46:08;;;;;;;;;;;;;;;22.14;60.37;99833.78;4409021;32;19974;-89
2022/09/07 06:48:33;;;;;;;;;;;;;;;22.19;60.38;99830.75;4409179;32;19986;-90
2022/09/07 06:51:06;;;;;;;;;;;;;;;22.32;60.38;99837.66;4409981;32;19978;-91
2022/09/07 06:53:35;;;;;;;;;;;;;;;22.40;60.39;99837.03;4409043;32;20010;-91
2022/09/07 06:56:00;;;;;;;;;;;;;;;22.36;60.38;99831.13;4409103;32;19970;-89
2022/09/07 06:58:26;;;;;;;;;;;;;;;22.46;60.39;99827.72;4409124;32;20263;-90
2022/09/07 07:00:51;;;;;;;;;;;;;;;22.45;60.39;99826.03;4405420;32;19990;-90
2022/09/07 07:03:16;;;;;;;;;;;;;;;22.51;60.40;99826.41;4412052;32;20105;-90
2022/09/07 07:05:48;;;;;;;;;;;;;;;22.67;60.40;99826.00;4409081;32;19982;-92
2022/09/07 07:08:13;;;;;;;;;;;;;;;22.72;60.40;99830.97;4408688;32;20019;-90
2022/09/07 07:10:39;;;;;;;;;;;;;;;22.70;60.40;99832.87;4409077;32;19994;-90
2022/09/07 07:13:04;;;;;;;;;;;;;;;22.74;60.41;99832.53;4410158;32;19990;-90
2022/09/07 07:15:29;;;;;;;;;;;;;;;22.74;60.41;99835.19;4408098;32;28014;-90
2022/09/07 07:17:54;;;;;;;;;;;;;;;22.87;60.41;99833.22;4408712;32;19978;-90
2022/09/07 07:20:20;;;;;;;;;;;;;;;23.01;60.41;99840.06;4408684;32;20008;-90
2022/09/07 07:22:48;;;;;;;;;;;;;;;23.09;60.42;99840.28;4395964;32;20008;-92
2022/09/07 07:25:14;;;;;;;;;;;;;;;23.19;60.43;99840.37;4408753;32;19966;-90
2022/09/07 07:27:39;;;;;;;;;;;;;;;23.22;60.43;99840.13;4408572;32;19970;-92
2022/09/07 07:30:05;;;;;;;;;;;;;;;23.33;60.43;99833.91;4408819;32;20017;-92
2022/09/07 07:32:30;;;;;;;;;;;;;;;23.42;60.43;99835.78;4408779;32;19998;-91
2022/09/07 07:34:55;;;;;;;;;;;;;;;23.43;60.45;99837.50;4408652;32;19998;-91
2022/09/07 07:37:21;;;;;;;;;;;;;;;23.40;60.44;99837.72;4408559;32;19970;-91
2022/09/07 07:39:49;;;;;;;;;;;;;;;23.48;60.45;99833.47;4408633;32;20326;-91
2022/09/07 07:42:14;;;;;;;;;;;;;;;23.73;60.46;99834.09;4408719;32;20268;-91
2022/09/07 07:44:39;;;;;;;;;;;;;;;23.64;60.45;99841.00;4407974;32;25909;-91
2022/09/07 07:47:05;;;;;;;;;;;;;;;23.73;60.45;99836.75;4408459;32;19978;-91
2022/09/07 07:49:30;;;;;;;;;;;;;;;23.90;60.47;99833.50;4408328;32;20283;-92
2022/09/07 07:51:55;;;;;;;;;;;;;;;23.88;60.46;99832.75;4408052;32;19994;-91
2022/09/07 07:54:21;;;;;;;;;;;;;;;24.01;60.48;99836.03;4408637;32;20315;-91
2022/09/07 07:56:46;;;;;;;;;;;;;;;24.03;60.47;99823.47;4408524;32;20019;-91
2022/09/07 07:59:11;;;;;;;;;;;;;;;24.30;60.49;99828.22;4395805;32;19998;-91
2022/09/07 08:01:36;;;;;;;;;;;;;;;24.18;60.48;99826.63;4408666;32;20017;-91
2022/09/07 08:04:02;;;;;;;;;;;;;;;24.27;60.49;99828.47;4408489;32;20034;-91
2022/09/07 08:06:27;;;;;;;;;;;;;;;24.27;60.49;99827.63;4409416;32;19978;-89
2022/09/07 08:08:53;;;;;;;;;;;;;;;24.23;60.49;99831.53;4406837;32;20268;-90
2022/09/07 08:11:19;;;;;;;;;;;;;;;24.46;60.51;99833.87;4394223;32;19998;-91
2022/09/07 08:13:44;;;;;;;;;;;;;;;24.52;60.50;99829.00;4395057;32;20037;-90
2022/09/07 08:16:10;;;;;;;;;;;;;;;24.61;60.51;99825.53;4406446;32;20018;-91
2022/09/07 08:18:35;;;;;;;;;;;;;;;24.75;60.51;99841.09;4395101;32;19998;-88
2022/09/07 08:21:01;;;;;;;;;;;;;;;24.95;60.52;99824.16;4406010;32;19986;-90
2022/09/07 08:23:27;;;;;;;;;;;;;;;24.98;60.52;99831.03;4407551;32;19984;-91
2022/09/07 08:25:57;;;;;;;;;;;;;;;25.03;60.53;99826.16;4407869;32;20002;-89
2022/09/07 08:28:22;;;;;;;;;;;;;;;25.21;60.53;99819.16;4395170;32;20013;-90
2022/09/07 08:30:48;;;;;;;;;;;;;;;25.27;60.54;99829.25;4409640;32;19970;-91
2022/09/07 08:33:13;;;;;;;;;;;;;;;25.51;60.55;99820.81;4412956;32;19971;-90
2022/09/07 08:35:39;;;;;;;;;;;;;;;25.64;60.56;99821.34;4409461;32;19982;-91
2022/09/07 08:38:04;;;;;;;;;;;;;;;25.82;60.57;99815.31;4395367;32;20047;-88
2022/09/07 08:40:30;;;;;;;;;;;;;;;25.88;60.58;99812.06;4408324;32;19994;-91
2022/09/07 08:43:01;;;;;;;;;;;;;;;26.08;60.58;99807.50;4396292;32;19978;-90
2022/09/07 08:45:28;;;;;;;;;;;;;;;26.14;60.58;99812.25;4408130;32;19978;-88
2022/09/07 08:47:53;;;;;;;;;;;;;;;26.46;60.60;99812.66;4395514;32;19994;-89
2022/09/07 08:50:37;;;;;;;;;;;;;;;26.57;60.62;99812.47;4408198;32;19993;-90
2022/09/07 08:53:12;;;;;;;;;;;;;;;26.74;60.62;99815.34;4409171;32;20411;-88
2022/09/07 08:55:37;;;;;;;;;;;;;;;26.78;60.62;99809.53;4407136;32;19982;-90
2022/09/07 08:58:10;;;;;;;;;;;;;;;26.99;60.63;99801.25;4407694;32;20269;-88
2022/09/07 09:00:38;;;;;;;;;;;;;;;27.00;60.63;99800.28;4406865;32;19994;-90
2022/09/07 09:03:07;;;;;;;;;;;;;;;27.31;60.65;99794.50;4406850;32;20044;-90
2022/09/07 09:05:35;;;;;;;;;;;;;;;27.24;60.64;99799.66;4407327;32;20009;-90
2022/09/07 09:08:13;;;;;;;;;;;;;;;27.11;60.63;99788.50;4407462;32;20278;-89
2022/09/07 09:10:38;;;;;;;;;;;;;;;27.11;60.63;99802.69;4407656;32;20056;-89
2022/09/07 09:13:21;;;;;;;;;;;;;;;27.35;60.66;99796.72;4408842;32;20316;-90
2022/09/07 09:15:50;;;;;;;;;;;;;;;27.32;60.65;99804.19;4407517;32;19997;-90
2022/09/07 09:18:18;;;;;;;;;;;;;;;27.53;60.66;99797.53;4407678;32;19990;-89
2022/09/07 09:20:47;;;;;;;;;;;;;;;27.68;60.67;99795.16;4408988;32;20004;-89
2022/09/07 09:23:13;;;;;;;;;;;;;;;27.87;60.67;99798.59;4407590;32;20036;-88
2022/09/07 09:25:43;;;;;;;;;;;;;;;27.82;60.67;99793.72;4407502;32;19981;-89
2022/09/07 09:28:10;;;;;;;;;;;;;;;27.93;60.68;99792.63;4406827;32;19991;-87
2022/09/07 09:30:35;;;;;;;;;;;;;;;27.99;60.69;99791.97;4407662;32;20008;-89
2022/09/07 09:33:17;;;;;;;;;;;;;;;28.12;60.68;99785.16;4406808;32;19975;-89
2022/09/07 09:35:43;;;;;;;;;;;;;;;28.39;60.71;99785.97;4408032;32;19978;-88
2022/09/07 09:38:28;;;;;;;;;;;;;;;28.47;60.71;99790.53;4406674;32;20259;-88
2022/09/07 09:40:53;;;;;;;;;;;;;;;28.62;60.72;99781.69;4407315;32;20013;-89
2022/09/07 09:43:19;;;;;;;;;;;;;;;28.72;60.72;99778.88;4407359;32;19994;-88
2022/09/07 09:45:45;;;;;;;;;;;;;;;28.92;60.73;99779.44;4407426;32;19982;-88
2022/09/07 09:48:10;;;;;;;;;;;;;;;28.77;60.72;99776.53;4406431;32;20005;-89
2022/09/07 09:50:37;;;;;;;;;;;;;;;28.84;60.72;99777.53;4405909;32;20355;-88
2022/09/07 09:53:03;;;;;;;;;;;;;;;28.95;60.74;99773.75;4405459;32;19982;-89
2022/09/07 09:55:30;;;;;;;;;;;;;;;29.21;60.75;99762.84;4394319;32;19974;-87
2022/09/07 09:58:05;;;;;;;;;;;;;;;29.31;60.75;99763.50;4407766;32;19978;-87
2022/09/07 10:00:31;;;;;;;;;;;;;;;29.42;60.76;99760.50;4408152;32;19986;-88
2022/09/07 10:03:04;;;;;;;;;;;;;;;29.63;60.77;99757.31;4411037;32;20025;-88
2022/09/07 10:05:32;;;;;;;;;;;;;;;29.73;60.76;99759.78;4414989;32;20334;-87
2022/09/07 10:07:58;;;;;;;;;;;;;;;29.73;60.78;99752.56;4406535;32;20005;-87
2022/09/07 10:10:24;;;;;;;;;;;;;;;29.83;60.78;99760.44;4406162;32;20034;-87
2022/09/07 10:12:51;;;;;;;;;;;;;;;29.83;60.78;99758.59;4394087;32;20015;-88
2022/09/07 10:15:23;;;;;;;;;;;;;;;30.10;60.79;99749.28;4408602;32;19978;-87
2022/09/07 10:17:49;;;;;;;;;;;;;;;30.34;60.80;99750.19;4407795;32;19998;-86
2022/09/07 10:20:14;;;;;;;;;;;;;;;30.54;60.82;99741.50;4408333;32;20008;-85
2022/09/07 10:22:40;;;;;;;;;;;;;;;30.72;60.82;99743.06;4408409;32;19992;-85
2022/09/07 10:25:26;;;;;;;;;;;;;;;30.92;60.83;99743.44;4408624;32;19990;-85
2022/09/07 10:28:13;;;;;;;;;;;;;;;31.17;60.85;99734.19;4408194;32;19990;-85
2022/09/07 10:30:54;;;;;;;;;;;;;;;30.96;60.83;99736.69;4408470;32;20404;-85
2022/09/07 10:33:30;;;;;;;;;;;;;;;31.07;60.84;99741.66;4409666;32;19989;-85
2022/09/07 10:36:00;;;;;;;;;;;;;;;31.13;60.84;99746.28;4408381;32;19978;-85
2022/09/07 10:38:25;;;;;;;;;;;;;;;31.29;60.85;99735.44;4408445;32;19979;-86
2022/09/07 10:40:58;;;;;;;;;;;;;;;31.45;60.86;99729.03;4395760;32;20024;-85
2022/09/07 10:43:36;;;;;;;;;;;;;;;31.48;60.85;99727.84;4408511;32;19989;-85
2022/09/07 10:46:10;;;;;;;;;;;;;;;31.75;60.88;99727.25;4409594;32;20319;-86
2022/09/07 10:48:38;;;;;;;;;;;;;;;31.80;60.88;99735.59;4408852;32;20303;-85
2022/09/07 10:51:07;;;;;;;;;;;;;;;31.61;60.87;99728.84;4394964;32;20024;-85
2022/09/07 10:53:32;;;;;;;;;;;;;;;31.75;60.88;99728.06;4408341;32;20342;-85
2022/09/07 10:56:02;;;;;;;;;;;;;;;32.02;60.88;99729.25;4408276;32;19994;-86
2022/09/07 10:58:46;;;;;;;;;;;;;;;32.19;60.89;99723.66;4408548;32;20073;-85
2022/09/07 11:01:17;;;;;;;;;;;;;;;31.94;60.88;99723.97;4409889;32;20069;-85
2022/09/07 11:03:42;;;;;;;;;;;;;;;32.11;60.89;99726.44;4408170;32;20030;-85
2022/09/07 11:06:17;;;;;;;;;;;;;;;32.01;60.89;99724.06;4408509;32;20076;-84
2022/09/07 11:08:43;;;;;;;;;;;;;;;32.17;60.89;99725.69;4395623;32;20004;-84
2022/09/07 11:11:14;;;;;;;;;;;;;;;32.33;60.91;99723.62;4409730;32;19986;-84
2022/09/07 11:13:40;;;;;;;;;;;;;;;32.51;60.91;99719.69;4409458;32;19979;-84
2022/09/07 11:16:06;;;;;;;;;;;;;;;32.67;60.92;99719.44;4409347;32;19982;-85
2022/09/07 11:18:34;;;;;;;;;;;;;;;32.55;60.92;99713.72;4409429;32;19970;-84
2022/09/07 11:20:59;;;;;;;;;;;;;;;32.59;60.93;99715.00;4409318;32;20021;-84
2022/09/07 11:23:25;;;;;;;;;;;;;;;32.64;60.92;99715.25;4407415;32;20008;-84
2022/09/07 11:25:53;;;;;;;;;;;;;;;32.61;60.93;99715.62;4409285;32;20053;-84
2022/09/07 11:28:28;;;;;;;;;;;;;;;32.59;60.93;99715.00;4408006;32;19990;-83
2022/09/07 11:30:56;;;;;;;;;;;;;;;32.56;60.92;99709.16;4409187;32;20035;-84
2022/09/07 11:33:29;;;;;;;;;;;;;;;32.71;60.93;99711.81;4408013;32;19974;-83
2022/09/07 11:36:04;;;;;;;;;;;;;;;32.80;60.93;99710.66;4409309;32;20047;-82
2022/09/07 11:38:32;;;;;;;;;;;;;;;32.75;60.92;99705.00;4408627;32;19986;-83
2022/09/07 11:40:58;;;;;;;;;;;;;;;32.73;60.93;99710.59;4408147;32;19990;-83
2022/09/07 11:43:26;;;;;;;;;;;;;;;32.79;60.93;99703.59;4407849;32;19984;-83
2022/09/07 11:46:12;;;;;;;;;;;;;;;32.61;60.93;99704.84;4407936;32;20037;-83
2022/09/07 11:48:44;;;;;;;;;;;;;;;32.63;60.93;99699.28;4395020;32;20393;-83
2022/09/07 11:51:24;;;;;;;;;;;;;;;32.70;60.93;99702.06;4407881;32;20010;-84
2022/09/07 11:53:51;;;;;;;;;;;;;;;32.93;60.94;99697.31;4407596;32;19974;-82
2022/09/07 11:56:27;;;;;;;;;;;;;;;32.94;60.94;99699.81;4407715;32;19977;-83
2022/09/07 11:58:55;;;;;;;;;;;;;;;32.92;60.95;99706.44;4409308;32;19986;-83
2022/09/07 12:01:23;;;;;;;;;;;;;;;32.79;60.94;99695.50;4409424;32;20010;-84
2022/09/07 12:03:53;;;;;;;;;;;;;;;32.79;60.93;99687.41;4409180;32;19973;-84
2022/09/07 12:06:23;;;;;;;;;;;;;;;32.81;60.93;99682.69;4407637;32;20322;-83
2022/09/07 12:08:51;;;;;;;;;;;;;;;32.89;60.94;99686.09;4407974;32;20338;-84
2022/09/07 12:11:29;;;;;;;;;;;;;;;32.71;60.93;99688.37;4409344;32;20020;-84
2022/09/07 12:14:24;;;;;;;;;;;;;;;32.79;60.94;99676.62;4409340;32;19992;-85
2022/09/07 12:17:08;;;;;;;;;;;;;;;32.69;60.94;99678.81;4391350;32;20852;-85
2022/09/07 12:19:33;;;;;;;;;;;;;;;32.74;60.93;99679.91;4409450;32;20126;-85
2022/09/07 12:21:59;;;;;;;;;;;;;;;32.85;60.94;99676.69;4406841;32;32310;-84
2022/09/07 12:24:39;;;;;;;;;;;;;;;32.70;60.93;99681.31;4408020;32;20034;-84
2022/09/07 12:27:05;;;;;;;;;;;;;;;32.71;60.93;99677.59;4409198;32;19982;-84
2022/09/07 12:29:30;;;;;;;;;;;;;;;32.77;60.94;99676.00;4409265;32;20320;-85
2022/09/07 12:31:55;;;;;;;;;;;;;;;32.82;60.93;99679.78;4408995;32;19982;-84
2022/09/07 12:34:30;;;;;;;;;;;;;;;32.80;60.94;99684.53;4407777;32;20028;-85
2022/09/07 12:36:56;;;;;;;;;;;;;;;32.60;60.93;99684.31;4408419;32;19969;-85
2022/09/07 12:39:24;;;;;;;;;;;;;;;32.69;60.93;99676.97;4407729;32;19992;-85
2022/09/07 12:41:50;;;;;;;;;;;;;;;32.75;60.93;99669.97;4409212;32;20005;-84
2022/09/07 12:44:19;;;;;;;;;;;;;;;32.83;60.95;99675.22;4407859;32;19978;-85
2022/09/07 12:46:45;;;;;;;;;;;;;;;32.76;60.94;99668.94;4407567;32;20001;-84
2022/09/07 12:49:24;;;;;;;;;;;;;;;32.76;60.94;99664.38;4407859;32;19990;-85
2022/09/07 12:52:09;;;;;;;;;;;;;;;32.61;60.93;99677.91;4407673;32;20054;-85
2022/09/07 12:54:36;;;;;;;;;;;;;;;32.56;60.93;99664.19;4377696;32;20033;-85